sensor_id;sensor_type;location;lat;lon;timestamp;temperature;humidity
9919;DHT22;4998;51.024;13.828;2023-02-26T00:00:58;3.30;99.00
9919;DHT22;4998;51.024;13.828;2023-02-26T00:03:25;3.30;98.90
9919;DHT22;4998;51.024;13.828;2023-02-26T00:05:57;3.30;98.90
9919;DHT22;4998;51.024;13.828;2023-02-26T00:08:24;3.30;98.90
9919;DHT22;4998;51.024;13.828;2023-02-26T00:10:51;3.30;98.90
9919;DHT22;4998;51.024;13.828;2023-02-26T00:13:20;3.30;98.90
9919;DHT22;4998;51.024;13.828;2023-02-26T00:15:47;3.30;99.00
9919;DHT22;4998;51.024;13.828;2023-02-26T00:18:16;3.30;99.00
9919;DHT22;4998;51.024;13.828;2023-02-26T00:20:43;3.30;99.40
9919;DHT22;4998;51.024;13.828;2023-02-26T00:23:13;3.30;99.10
9919;DHT22;4998;51.024;13.828;2023-02-26T00:25:40;3.30;99.10
9919;DHT22;4998;51.024;13.828;2023-02-26T00:28:08;3.30;99.10
9919;DHT22;4998;51.024;13.828;2023-02-26T00:30:36;3.30;99.00
9919;DHT22;4998;51.024;13.828;2023-02-26T00:33:03;3.30;99.00
9919;DHT22;4998;51.024;13.828;2023-02-26T00:35:31;3.30;99.00
9919;DHT22;4998;51.024;13.828;2023-02-26T00:38:00;3.30;99.00
9919;DHT22;4998;51.024;13.828;2023-02-26T00:40:35;3.30;99.00
9919;DHT22;4998;51.024;13.828;2023-02-26T00:43:05;3.30;99.00
9919;DHT22;4998;51.024;13.828;2023-02-26T00:45:33;3.30;99.00
9919;DHT22;4998;51.024;13.828;2023-02-26T00:48:14;3.30;99.00
9919;DHT22;4998;51.024;13.828;2023-02-26T00:50:49;3.30;99.00
9919;DHT22;4998;51.024;13.828;2023-02-26T00:53:26;3.30;99.00
9919;DHT22;4998;51.024;13.828;2023-02-26T00:55:55;3.30;99.00
9919;DHT22;4998;51.024;13.828;2023-02-26T00:58:22;3.30;98.90
9919;DHT22;4998;51.024;13.828;2023-02-26T01:00:49;3.20;98.90
9919;DHT22;4998;51.024;13.828;2023-02-26T01:03:17;3.20;98.90
9919;DHT22;4998;51.024;13.828;2023-02-26T01:05:44;3.20;98.90
9919;DHT22;4998;51.024;13.828;2023-02-26T01:08:14;3.20;99.00
9919;DHT22;4998;51.024;13.828;2023-02-26T01:10:45;3.20;99.00
9919;DHT22;4998;51.024;13.828;2023-02-26T01:13:14;3.20;99.00
9919;DHT22;4998;51.024;13.828;2023-02-26T01:15:46;3.20;99.00
9919;DHT22;4998;51.024;13.828;2023-02-26T01:18:18;3.20;99.00
9919;DHT22;4998;51.024;13.828;2023-02-26T01:20:50;3.20;99.10
9919;DHT22;4998;51.024;13.828;2023-02-26T01:23:23;3.30;99.10
9919;DHT22;4998;51.024;13.828;2023-02-26T01:25:54;3.20;99.10
9919;DHT22;4998;51.024;13.828;2023-02-26T01:28:25;3.20;99.10
9919;DHT22;4998;51.024;13.828;2023-02-26T01:30:54;3.20;99.10
9919;DHT22;4998;51.024;13.828;2023-02-26T01:33:28;3.20;99.00
9919;DHT22;4998;51.024;13.828;2023-02-26T01:36:00;3.20;99.00
9919;DHT22;4998;51.024;13.828;2023-02-26T01:38:32;3.20;99.00
9919;DHT22;4998;51.024;13.828;2023-02-26T01:41:28;3.20;99.00
9919;DHT22;4998;51.024;13.828;2023-02-26T01:44:11;3.20;99.10
9919;DHT22;4998;51.024;13.828;2023-02-26T01:46:50;3.10;99.10
9919;DHT22;4998;51.024;13.828;2023-02-26T01:49:21;3.10;99.20
9919;DHT22;4998;51.024;13.828;2023-02-26T01:51:51;3.10;99.20
9919;DHT22;4998;51.024;13.828;2023-02-26T01:54:20;3.10;99.10
9919;DHT22;4998;51.024;13.828;2023-02-26T01:56:49;3.10;99.10
9919;DHT22;4998;51.024;13.828;2023-02-26T01:59:19;3.10;99.10
9919;DHT22;4998;51.024;13.828;2023-02-26T02:01:50;3.20;99.10
9919;DHT22;4998;51.024;13.828;2023-02-26T02:04:18;3.10;99.10
9919;DHT22;4998;51.024;13.828;2023-02-26T02:06:46;3.10;99.10
9919;DHT22;4998;51.024;13.828;2023-02-26T02:09:13;3.10;99.10
9919;DHT22;4998;51.024;13.828;2023-02-26T02:11:59;3.10;99.20
9919;DHT22;4998;51.024;13.828;2023-02-26T02:14:40;3.10;99.30
9919;DHT22;4998;51.024;13.828;2023-02-26T02:17:18;3.10;99.30
9919;DHT22;4998;51.024;13.828;2023-02-26T02:22:55;3.10;99.30
9919;DHT22;4998;51.024;13.828;2023-02-26T02:26:00;3.10;99.40
9919;DHT22;4998;51.024;13.828;2023-02-26T02:28:40;3.10;99.40
9919;DHT22;4998;51.024;13.828;2023-02-26T02:31:16;3.20;99.80
9919;DHT22;4998;51.024;13.828;2023-02-26T02:33:48;3.20;99.40
9919;DHT22;4998;51.024;13.828;2023-02-26T02:36:24;3.20;99.40
9919;DHT22;4998;51.024;13.828;2023-02-26T02:38:55;3.20;99.40
9919;DHT22;4998;51.024;13.828;2023-02-26T02:41:27;3.20;99.40
9919;DHT22;4998;51.024;13.828;2023-02-26T02:43:57;3.20;99.40
9919;DHT22;4998;51.024;13.828;2023-02-26T02:46:29;3.20;99.30
9919;DHT22;4998;51.024;13.828;2023-02-26T02:49:00;3.20;99.30
9919;DHT22;4998;51.024;13.828;2023-02-26T02:51:31;3.30;99.40
9919;DHT22;4998;51.024;13.828;2023-02-26T02:54:03;3.30;99.40
9919;DHT22;4998;51.024;13.828;2023-02-26T02:56:36;3.30;99.40
9919;DHT22;4998;51.024;13.828;2023-02-26T02:59:15;3.30;99.40
9919;DHT22;4998;51.024;13.828;2023-02-26T03:01:44;3.40;99.40
9919;DHT22;4998;51.024;13.828;2023-02-26T03:04:15;3.30;99.30
9919;DHT22;4998;51.024;13.828;2023-02-26T03:06:43;3.30;99.20
9919;DHT22;4998;51.024;13.828;2023-02-26T03:09:11;3.30;99.20
9919;DHT22;4998;51.024;13.828;2023-02-26T03:11:39;3.40;99.30
9919;DHT22;4998;51.024;13.828;2023-02-26T03:14:06;3.40;99.20
9919;DHT22;4998;51.024;13.828;2023-02-26T03:17:00;3.40;99.20
9919;DHT22;4998;51.024;13.828;2023-02-26T03:19:31;3.40;99.20
9919;DHT22;4998;51.024;13.828;2023-02-26T03:22:05;3.40;99.20
9919;DHT22;4998;51.024;13.828;2023-02-26T03:24:37;3.40;99.20
9919;DHT22;4998;51.024;13.828;2023-02-26T03:27:09;3.40;99.10
9919;DHT22;4998;51.024;13.828;2023-02-26T03:29:42;3.40;99.10
9919;DHT22;4998;51.024;13.828;2023-02-26T03:32:16;3.40;99.10
9919;DHT22;4998;51.024;13.828;2023-02-26T03:34:48;3.50;99.10
9919;DHT22;4998;51.024;13.828;2023-02-26T03:37:19;3.50;99.10
9919;DHT22;4998;51.024;13.828;2023-02-26T03:39:52;3.50;99.20
9919;DHT22;4998;51.024;13.828;2023-02-26T03:42:25;3.50;99.10
9919;DHT22;4998;51.024;13.828;2023-02-26T03:44:55;3.50;99.10
9919;DHT22;4998;51.024;13.828;2023-02-26T03:47:25;3.50;99.10
9919;DHT22;4998;51.024;13.828;2023-02-26T03:49:57;3.50;99.10
9919;DHT22;4998;51.024;13.828;2023-02-26T03:52:27;3.50;99.00
9919;DHT22;4998;51.024;13.828;2023-02-26T03:55:02;3.50;99.00
9919;DHT22;4998;51.024;13.828;2023-02-26T03:57:30;3.50;99.00
9919;DHT22;4998;51.024;13.828;2023-02-26T03:59:58;3.50;98.90
9919;DHT22;4998;51.024;13.828;2023-02-26T04:02:30;3.50;99.00
9919;DHT22;4998;51.024;13.828;2023-02-26T04:05:02;3.50;99.10
9919;DHT22;4998;51.024;13.828;2023-02-26T04:07:29;3.60;99.10
9919;DHT22;4998;51.024;13.828;2023-02-26T04:09:56;3.60;99.10
9919;DHT22;4998;51.024;13.828;2023-02-26T04:12:24;3.60;99.10
9919;DHT22;4998;51.024;13.828;2023-02-26T04:14:52;3.60;99.10
9919;DHT22;4998;51.024;13.828;2023-02-26T04:17:19;3.60;99.00
9919;DHT22;4998;51.024;13.828;2023-02-26T04:19:48;3.60;99.00
9919;DHT22;4998;51.024;13.828;2023-02-26T04:22:15;3.70;99.00
9919;DHT22;4998;51.024;13.828;2023-02-26T04:24:42;3.70;99.00
9919;DHT22;4998;51.024;13.828;2023-02-26T04:27:09;3.70;99.00
9919;DHT22;4998;51.024;13.828;2023-02-26T04:29:36;3.70;99.00
9919;DHT22;4998;51.024;13.828;2023-02-26T04:32:03;3.70;98.90
9919;DHT22;4998;51.024;13.828;2023-02-26T04:34:30;3.70;98.90
9919;DHT22;4998;51.024;13.828;2023-02-26T04:36:58;3.70;98.80
9919;DHT22;4998;51.024;13.828;2023-02-26T04:39:25;3.70;98.80
9919;DHT22;4998;51.024;13.828;2023-02-26T04:41:52;3.70;98.70
9919;DHT22;4998;51.024;13.828;2023-02-26T04:44:19;3.70;98.70
9919;DHT22;4998;51.024;13.828;2023-02-26T04:46:46;3.70;98.70
9919;DHT22;4998;51.024;13.828;2023-02-26T04:49:13;3.70;98.70
9919;DHT22;4998;51.024;13.828;2023-02-26T04:51:40;3.70;98.70
9919;DHT22;4998;51.024;13.828;2023-02-26T04:54:08;3.70;98.70
9919;DHT22;4998;51.024;13.828;2023-02-26T04:56:35;3.80;98.70
9919;DHT22;4998;51.024;13.828;2023-02-26T04:59:02;3.70;98.60
9919;DHT22;4998;51.024;13.828;2023-02-26T05:01:29;3.80;98.50
9919;DHT22;4998;51.024;13.828;2023-02-26T05:03:57;3.80;98.50
9919;DHT22;4998;51.024;13.828;2023-02-26T05:06:24;3.80;98.40
9919;DHT22;4998;51.024;13.828;2023-02-26T05:08:51;3.80;98.40
9919;DHT22;4998;51.024;13.828;2023-02-26T05:11:19;3.80;98.30
9919;DHT22;4998;51.024;13.828;2023-02-26T05:13:46;3.80;98.20
9919;DHT22;4998;51.024;13.828;2023-02-26T05:16:14;3.80;98.20
9919;DHT22;4998;51.024;13.828;2023-02-26T05:18:41;3.80;98.30
9919;DHT22;4998;51.024;13.828;2023-02-26T05:21:08;3.80;98.20
9919;DHT22;4998;51.024;13.828;2023-02-26T05:23:35;3.80;98.20
9919;DHT22;4998;51.024;13.828;2023-02-26T05:26:02;3.80;98.10
9919;DHT22;4998;51.024;13.828;2023-02-26T05:28:31;3.80;98.10
9919;DHT22;4998;51.024;13.828;2023-02-26T05:30:58;3.80;98.10
9919;DHT22;4998;51.024;13.828;2023-02-26T05:33:26;3.80;98.10
9919;DHT22;4998;51.024;13.828;2023-02-26T05:35:53;3.80;98.00
9919;DHT22;4998;51.024;13.828;2023-02-26T05:38:21;3.80;98.10
9919;DHT22;4998;51.024;13.828;2023-02-26T05:40:48;3.80;98.00
9919;DHT22;4998;51.024;13.828;2023-02-26T05:43:15;3.80;98.30
9919;DHT22;4998;51.024;13.828;2023-02-26T05:45:44;3.80;97.90
9919;DHT22;4998;51.024;13.828;2023-02-26T05:48:11;3.80;98.00
9919;DHT22;4998;51.024;13.828;2023-02-26T05:50:38;3.80;98.00
9919;DHT22;4998;51.024;13.828;2023-02-26T05:53:05;3.70;97.90
9919;DHT22;4998;51.024;13.828;2023-02-26T05:55:32;3.70;97.80
9919;DHT22;4998;51.024;13.828;2023-02-26T05:57:59;3.70;97.80
9919;DHT22;4998;51.024;13.828;2023-02-26T06:00:26;3.70;97.80
9919;DHT22;4998;51.024;13.828;2023-02-26T06:02:55;3.70;97.70
9919;DHT22;4998;51.024;13.828;2023-02-26T06:05:22;3.60;97.70
9919;DHT22;4998;51.024;13.828;2023-02-26T06:07:49;3.60;97.70
9919;DHT22;4998;51.024;13.828;2023-02-26T06:10:16;3.60;97.90
9919;DHT22;4998;51.024;13.828;2023-02-26T06:12:43;3.60;97.90
9919;DHT22;4998;51.024;13.828;2023-02-26T06:15:10;3.60;97.90
9919;DHT22;4998;51.024;13.828;2023-02-26T06:17:38;3.60;98.30
9919;DHT22;4998;51.024;13.828;2023-02-26T06:20:08;3.60;98.30
9919;DHT22;4998;51.024;13.828;2023-02-26T06:22:35;3.60;98.00
9919;DHT22;4998;51.024;13.828;2023-02-26T06:25:02;3.60;97.90
9919;DHT22;4998;51.024;13.828;2023-02-26T06:27:29;3.60;97.90
9919;DHT22;4998;51.024;13.828;2023-02-26T06:29:57;3.60;97.90
9919;DHT22;4998;51.024;13.828;2023-02-26T06:32:24;3.60;98.00
9919;DHT22;4998;51.024;13.828;2023-02-26T06:34:51;3.60;98.00
9919;DHT22;4998;51.024;13.828;2023-02-26T06:37:19;3.60;98.00
9919;DHT22;4998;51.024;13.828;2023-02-26T06:39:46;3.60;97.90
9919;DHT22;4998;51.024;13.828;2023-02-26T06:42:13;3.60;97.90
9919;DHT22;4998;51.024;13.828;2023-02-26T06:44:40;3.60;97.90
9919;DHT22;4998;51.024;13.828;2023-02-26T06:47:07;3.60;97.90
9919;DHT22;4998;51.024;13.828;2023-02-26T06:49:34;3.70;98.00
9919;DHT22;4998;51.024;13.828;2023-02-26T06:52:01;3.60;98.00
9919;DHT22;4998;51.024;13.828;2023-02-26T06:54:29;3.70;98.00
9919;DHT22;4998;51.024;13.828;2023-02-26T06:56:56;3.70;98.00
9919;DHT22;4998;51.024;13.828;2023-02-26T06:59:23;3.60;98.00
9919;DHT22;4998;51.024;13.828;2023-02-26T07:01:50;3.70;98.00
9919;DHT22;4998;51.024;13.828;2023-02-26T07:04:17;3.70;98.00
9919;DHT22;4998;51.024;13.828;2023-02-26T07:06:44;3.70;97.90
9919;DHT22;4998;51.024;13.828;2023-02-26T07:09:11;3.70;97.80
9919;DHT22;4998;51.024;13.828;2023-02-26T07:11:40;3.70;97.80
9919;DHT22;4998;51.024;13.828;2023-02-26T07:14:07;3.70;97.80
9919;DHT22;4998;51.024;13.828;2023-02-26T07:16:34;3.70;97.90
9919;DHT22;4998;51.024;13.828;2023-02-26T07:19:01;3.70;97.90
9919;DHT22;4998;51.024;13.828;2023-02-26T07:21:28;3.80;98.00
9919;DHT22;4998;51.024;13.828;2023-02-26T07:23:55;3.80;97.90
9919;DHT22;4998;51.024;13.828;2023-02-26T07:26:22;3.80;97.90
9919;DHT22;4998;51.024;13.828;2023-02-26T07:28:50;3.80;97.90
9919;DHT22;4998;51.024;13.828;2023-02-26T07:31:17;3.80;97.90
9919;DHT22;4998;51.024;13.828;2023-02-26T07:33:44;3.90;97.80
9919;DHT22;4998;51.024;13.828;2023-02-26T07:36:11;3.90;97.80
9919;DHT22;4998;51.024;13.828;2023-02-26T07:38:38;3.90;97.90
9919;DHT22;4998;51.024;13.828;2023-02-26T07:41:05;3.90;97.90
9919;DHT22;4998;51.024;13.828;2023-02-26T07:43:32;3.90;97.70
9919;DHT22;4998;51.024;13.828;2023-02-26T07:46:00;3.90;97.50
9919;DHT22;4998;51.024;13.828;2023-02-26T07:48:27;3.90;97.40
9919;DHT22;4998;51.024;13.828;2023-02-26T07:50:54;4.00;97.40
9919;DHT22;4998;51.024;13.828;2023-02-26T07:53:22;3.90;97.40
9919;DHT22;4998;51.024;13.828;2023-02-26T07:55:49;3.90;97.40
9919;DHT22;4998;51.024;13.828;2023-02-26T07:58:16;3.90;97.30
9919;DHT22;4998;51.024;13.828;2023-02-26T08:00:43;3.90;97.30
9919;DHT22;4998;51.024;13.828;2023-02-26T08:03:11;3.90;97.40
9919;DHT22;4998;51.024;13.828;2023-02-26T08:05:40;3.90;97.40
9919;DHT22;4998;51.024;13.828;2023-02-26T08:08:07;3.90;97.40
9919;DHT22;4998;51.024;13.828;2023-02-26T08:10:34;3.90;97.40
9919;DHT22;4998;51.024;13.828;2023-02-26T08:13:01;3.90;97.40
9919;DHT22;4998;51.024;13.828;2023-02-26T08:15:28;3.90;97.30
9919;DHT22;4998;51.024;13.828;2023-02-26T08:17:55;3.90;97.20
9919;DHT22;4998;51.024;13.828;2023-02-26T08:20:24;3.90;97.20
9919;DHT22;4998;51.024;13.828;2023-02-26T08:22:51;3.90;97.20
9919;DHT22;4998;51.024;13.828;2023-02-26T08:25:18;3.90;97.20
9919;DHT22;4998;51.024;13.828;2023-02-26T08:27:45;3.80;97.20
9919;DHT22;4998;51.024;13.828;2023-02-26T08:30:13;3.80;97.30
9919;DHT22;4998;51.024;13.828;2023-02-26T08:32:40;3.80;97.40
9919;DHT22;4998;51.024;13.828;2023-02-26T08:35:08;3.90;97.50
9919;DHT22;4998;51.024;13.828;2023-02-26T08:37:37;3.90;97.50
9919;DHT22;4998;51.024;13.828;2023-02-26T08:40:05;3.90;97.60
9919;DHT22;4998;51.024;13.828;2023-02-26T08:42:33;3.90;97.50
9919;DHT22;4998;51.024;13.828;2023-02-26T08:45:00;3.90;97.60
9919;DHT22;4998;51.024;13.828;2023-02-26T08:47:27;3.90;97.60
9919;DHT22;4998;51.024;13.828;2023-02-26T08:49:54;3.90;97.60
9919;DHT22;4998;51.024;13.828;2023-02-26T08:52:21;3.90;97.50
9919;DHT22;4998;51.024;13.828;2023-02-26T08:54:50;3.90;97.40
9919;DHT22;4998;51.024;13.828;2023-02-26T08:57:17;3.90;97.40
9919;DHT22;4998;51.024;13.828;2023-02-26T08:59:44;3.90;97.50
9919;DHT22;4998;51.024;13.828;2023-02-26T09:02:12;3.80;97.50
9919;DHT22;4998;51.024;13.828;2023-02-26T09:04:39;3.80;97.50
9919;DHT22;4998;51.024;13.828;2023-02-26T09:07:06;3.80;97.60
9919;DHT22;4998;51.024;13.828;2023-02-26T09:09:33;3.80;97.70
9919;DHT22;4998;51.024;13.828;2023-02-26T09:12:02;3.80;97.90
9919;DHT22;4998;51.024;13.828;2023-02-26T09:14:29;3.80;97.90
9919;DHT22;4998;51.024;13.828;2023-02-26T09:16:56;3.80;97.80
9919;DHT22;4998;51.024;13.828;2023-02-26T09:19:23;3.80;97.90
9919;DHT22;4998;51.024;13.828;2023-02-26T09:21:50;3.90;97.90
9919;DHT22;4998;51.024;13.828;2023-02-26T09:24:17;3.90;98.00
9919;DHT22;4998;51.024;13.828;2023-02-26T09:26:44;3.90;98.10
9919;DHT22;4998;51.024;13.828;2023-02-26T09:29:13;4.00;98.20
9919;DHT22;4998;51.024;13.828;2023-02-26T09:31:40;4.00;98.30
9919;DHT22;4998;51.024;13.828;2023-02-26T09:34:07;4.10;98.40
9919;DHT22;4998;51.024;13.828;2023-02-26T09:36:34;4.20;98.40
9919;DHT22;4998;51.024;13.828;2023-02-26T09:39:02;4.30;98.40
9919;DHT22;4998;51.024;13.828;2023-02-26T09:41:30;4.30;98.30
9919;DHT22;4998;51.024;13.828;2023-02-26T09:44:08;4.40;98.20
9919;DHT22;4998;51.024;13.828;2023-02-26T09:46:43;4.50;98.20
9919;DHT22;4998;51.024;13.828;2023-02-26T09:49:22;4.60;98.10
9919;DHT22;4998;51.024;13.828;2023-02-26T09:51:54;4.70;98.00
9919;DHT22;4998;51.024;13.828;2023-02-26T09:54:25;4.70;97.90
9919;DHT22;4998;51.024;13.828;2023-02-26T09:56:57;4.80;97.80
9919;DHT22;4998;51.024;13.828;2023-02-26T09:59:26;4.90;97.70
9919;DHT22;4998;51.024;13.828;2023-02-26T10:01:59;4.90;97.50
9919;DHT22;4998;51.024;13.828;2023-02-26T10:04:44;5.00;97.20
9919;DHT22;4998;51.024;13.828;2023-02-26T10:07:23;5.00;97.00
9919;DHT22;4998;51.024;13.828;2023-02-26T10:10:03;5.00;96.80
9919;DHT22;4998;51.024;13.828;2023-02-26T10:12:34;5.00;97.00
9919;DHT22;4998;51.024;13.828;2023-02-26T10:15:05;5.10;96.80
9919;DHT22;4998;51.024;13.828;2023-02-26T10:17:42;5.10;97.10
9919;DHT22;4998;51.024;13.828;2023-02-26T10:20:18;5.20;97.00
9919;DHT22;4998;51.024;13.828;2023-02-26T10:22:53;5.20;96.70
9919;DHT22;4998;51.024;13.828;2023-02-26T10:25:25;5.20;96.60
9919;DHT22;4998;51.024;13.828;2023-02-26T10:28:00;5.30;96.60
9919;DHT22;4998;51.024;13.828;2023-02-26T10:30:33;5.30;96.50
9919;DHT22;4998;51.024;13.828;2023-02-26T10:33:12;5.30;96.70
9919;DHT22;4998;51.024;13.828;2023-02-26T10:35:44;5.40;96.70
9919;DHT22;4998;51.024;13.828;2023-02-26T10:38:16;5.40;97.10
9919;DHT22;4998;51.024;13.828;2023-02-26T10:40:49;5.50;96.70
9919;DHT22;4998;51.024;13.828;2023-02-26T10:43:21;5.60;96.60
9919;DHT22;4998;51.024;13.828;2023-02-26T10:46:00;5.60;96.00
9919;DHT22;4998;51.024;13.828;2023-02-26T10:48:51;5.60;95.60
9919;DHT22;4998;51.024;13.828;2023-02-26T10:51:23;5.60;95.40
9919;DHT22;4998;51.024;13.828;2023-02-26T10:53:54;5.70;95.70
9919;DHT22;4998;51.024;13.828;2023-02-26T10:56:25;5.70;96.00
9919;DHT22;4998;51.024;13.828;2023-02-26T10:58:53;5.70;95.90
9919;DHT22;4998;51.024;13.828;2023-02-26T11:01:22;5.80;95.70
9919;DHT22;4998;51.024;13.828;2023-02-26T11:03:56;5.80;95.20
9919;DHT22;4998;51.024;13.828;2023-02-26T11:06:33;5.80;94.80
9919;DHT22;4998;51.024;13.828;2023-02-26T11:09:01;5.80;95.10
9919;DHT22;4998;51.024;13.828;2023-02-26T11:11:41;5.80;94.70
9919;DHT22;4998;51.024;13.828;2023-02-26T11:14:09;5.80;94.60
9919;DHT22;4998;51.024;13.828;2023-02-26T11:16:42;5.80;94.60
9919;DHT22;4998;51.024;13.828;2023-02-26T11:19:13;5.80;94.50
9919;DHT22;4998;51.024;13.828;2023-02-26T11:21:43;5.80;94.60
9919;DHT22;4998;51.024;13.828;2023-02-26T11:24:14;5.80;94.50
9919;DHT22;4998;51.024;13.828;2023-02-26T11:26:46;5.90;94.50
9919;DHT22;4998;51.024;13.828;2023-02-26T11:29:16;5.90;94.70
9919;DHT22;4998;51.024;13.828;2023-02-26T11:31:47;5.90;94.70
9919;DHT22;4998;51.024;13.828;2023-02-26T11:34:22;6.00;94.80
9919;DHT22;4998;51.024;13.828;2023-02-26T11:36:50;6.10;94.70
9919;DHT22;4998;51.024;13.828;2023-02-26T11:39:21;6.10;94.50
9919;DHT22;4998;51.024;13.828;2023-02-26T11:41:52;6.20;94.30
9919;DHT22;4998;51.024;13.828;2023-02-26T11:44:24;6.20;94.00
9919;DHT22;4998;51.024;13.828;2023-02-26T11:46:55;6.20;94.00
9919;DHT22;4998;51.024;13.828;2023-02-26T11:49:26;6.20;93.80
9919;DHT22;4998;51.024;13.828;2023-02-26T11:52:15;6.20;93.70
9919;DHT22;4998;51.024;13.828;2023-02-26T11:54:44;6.20;93.50
9919;DHT22;4998;51.024;13.828;2023-02-26T11:57:16;6.10;93.30
9919;DHT22;4998;51.024;13.828;2023-02-26T11:59:47;6.30;93.50
9919;DHT22;4998;51.024;13.828;2023-02-26T12:02:19;6.30;93.30
9919;DHT22;4998;51.024;13.828;2023-02-26T12:04:51;6.30;93.40
9919;DHT22;4998;51.024;13.828;2023-02-26T12:07:19;6.30;93.30
9919;DHT22;4998;51.024;13.828;2023-02-26T12:09:47;6.30;93.40
9919;DHT22;4998;51.024;13.828;2023-02-26T12:12:29;6.30;93.10
9919;DHT22;4998;51.024;13.828;2023-02-26T12:15:28;6.30;92.80
9919;DHT22;4998;51.024;13.828;2023-02-26T12:21:07;6.30;92.90
9919;DHT22;4998;51.024;13.828;2023-02-26T12:23:59;6.30;93.00
9919;DHT22;4998;51.024;13.828;2023-02-26T12:26:32;6.30;92.90
9919;DHT22;4998;51.024;13.828;2023-02-26T12:29:14;6.30;93.00
9919;DHT22;4998;51.024;13.828;2023-02-26T12:32:03;6.30;92.80
9919;DHT22;4998;51.024;13.828;2023-02-26T12:34:44;6.30;92.80
9919;DHT22;4998;51.024;13.828;2023-02-26T12:37:27;6.30;92.80
9919;DHT22;4998;51.024;13.828;2023-02-26T12:40:07;6.40;92.70
9919;DHT22;4998;51.024;13.828;2023-02-26T12:42:47;6.40;92.50
9919;DHT22;4998;51.024;13.828;2023-02-26T12:45:27;6.40;92.50
9919;DHT22;4998;51.024;13.828;2023-02-26T12:48:24;6.40;92.30
9919;DHT22;4998;51.024;13.828;2023-02-26T12:50:59;6.40;92.50
9919;DHT22;4998;51.024;13.828;2023-02-26T12:54:02;6.50;92.60
9919;DHT22;4998;51.024;13.828;2023-02-26T12:59:42;6.50;92.20
9919;DHT22;4998;51.024;13.828;2023-02-26T13:02:30;6.50;92.10
9919;DHT22;4998;51.024;13.828;2023-02-26T13:05:18;6.50;92.20
9919;DHT22;4998;51.024;13.828;2023-02-26T13:08:02;6.50;92.40
9919;DHT22;4998;51.024;13.828;2023-02-26T13:10:43;6.50;92.50
9919;DHT22;4998;51.024;13.828;2023-02-26T13:13:29;6.50;92.20
9919;DHT22;4998;51.024;13.828;2023-02-26T13:16:10;6.50;92.00
9919;DHT22;4998;51.024;13.828;2023-02-26T13:18:45;6.50;91.90
9919;DHT22;4998;51.024;13.828;2023-02-26T13:21:20;6.50;91.80
9919;DHT22;4998;51.024;13.828;2023-02-26T13:23:50;6.40;91.70
9919;DHT22;4998;51.024;13.828;2023-02-26T13:26:20;6.40;91.60
9919;DHT22;4998;51.024;13.828;2023-02-26T13:28:53;6.40;91.70
9919;DHT22;4998;51.024;13.828;2023-02-26T13:31:27;6.30;91.60
9919;DHT22;4998;51.024;13.828;2023-02-26T13:34:00;6.30;91.80
9919;DHT22;4998;51.024;13.828;2023-02-26T13:36:28;6.30;91.90
9919;DHT22;4998;51.024;13.828;2023-02-26T13:39:05;6.30;92.10
9919;DHT22;4998;51.024;13.828;2023-02-26T13:41:45;6.30;91.90
9919;DHT22;4998;51.024;13.828;2023-02-26T13:44:31;6.30;92.10
9919;DHT22;4998;51.024;13.828;2023-02-26T13:47:22;6.30;92.10
9919;DHT22;4998;51.024;13.828;2023-02-26T13:50:02;6.30;92.20
9919;DHT22;4998;51.024;13.828;2023-02-26T13:52:34;6.30;92.50
9919;DHT22;4998;51.024;13.828;2023-02-26T13:55:02;6.30;92.30
9919;DHT22;4998;51.024;13.828;2023-02-26T13:57:41;6.40;92.50
9919;DHT22;4998;51.024;13.828;2023-02-26T14:00:24;6.40;92.20
9919;DHT22;4998;51.024;13.828;2023-02-26T14:02:54;6.30;91.90
9919;DHT22;4998;51.024;13.828;2023-02-26T14:11:36;5.70;91.30
9919;DHT22;4998;51.024;13.828;2023-02-26T14:17:18;5.30;91.70
9919;DHT22;4998;51.024;13.828;2023-02-26T14:20:14;5.10;91.70
9919;DHT22;4998;51.024;13.828;2023-02-26T14:22:42;4.90;91.70
9919;DHT22;4998;51.024;13.828;2023-02-26T14:25:17;4.80;91.90
9919;DHT22;4998;51.024;13.828;2023-02-26T14:27:46;4.70;92.10
9919;DHT22;4998;51.024;13.828;2023-02-26T14:30:28;4.60;92.30
9919;DHT22;4998;51.024;13.828;2023-02-26T14:33:07;4.60;92.60
9919;DHT22;4998;51.024;13.828;2023-02-26T14:35:39;4.50;92.70
9919;DHT22;4998;51.024;13.828;2023-02-26T14:38:11;4.50;92.90
9919;DHT22;4998;51.024;13.828;2023-02-26T14:40:43;4.50;93.00
9919;DHT22;4998;51.024;13.828;2023-02-26T14:43:18;4.40;93.20
9919;DHT22;4998;51.024;13.828;2023-02-26T14:45:48;4.40;93.40
9919;DHT22;4998;51.024;13.828;2023-02-26T14:48:17;4.50;93.70
9919;DHT22;4998;51.024;13.828;2023-02-26T14:50:50;4.50;93.80
9919;DHT22;4998;51.024;13.828;2023-02-26T14:56:46;4.60;94.50
9919;DHT22;4998;51.024;13.828;2023-02-26T14:59:35;4.70;94.00
9919;DHT22;4998;51.024;13.828;2023-02-26T15:02:20;4.80;94.00
9919;DHT22;4998;51.024;13.828;2023-02-26T15:05:27;4.80;94.10
9919;DHT22;4998;51.024;13.828;2023-02-26T15:08:10;4.90;94.10
9919;DHT22;4998;51.024;13.828;2023-02-26T15:10:52;4.90;94.30
9919;DHT22;4998;51.024;13.828;2023-02-26T15:16:26;5.00;94.00
9919;DHT22;4998;51.024;13.828;2023-02-26T15:19:17;4.90;93.80
9919;DHT22;4998;51.024;13.828;2023-02-26T15:22:02;4.80;93.80
9919;DHT22;4998;51.024;13.828;2023-02-26T15:24:34;4.70;93.70
9919;DHT22;4998;51.024;13.828;2023-02-26T15:27:03;4.60;93.50
9919;DHT22;4998;51.024;13.828;2023-02-26T15:29:34;4.50;93.40
9919;DHT22;4998;51.024;13.828;2023-02-26T15:32:06;4.40;93.30
9919;DHT22;4998;51.024;13.828;2023-02-26T15:34:44;4.30;93.40
9919;DHT22;4998;51.024;13.828;2023-02-26T15:37:20;4.30;93.60
9919;DHT22;4998;51.024;13.828;2023-02-26T15:39:48;4.20;93.80
9919;DHT22;4998;51.024;13.828;2023-02-26T15:42:16;4.10;93.90
9919;DHT22;4998;51.024;13.828;2023-02-26T15:44:45;4.10;94.00
9919;DHT22;4998;51.024;13.828;2023-02-26T15:47:14;4.10;94.10
9919;DHT22;4998;51.024;13.828;2023-02-26T15:49:45;4.10;94.20
9919;DHT22;4998;51.024;13.828;2023-02-26T15:52:15;4.10;94.30
9919;DHT22;4998;51.024;13.828;2023-02-26T15:54:50;4.10;94.30
9919;DHT22;4998;51.024;13.828;2023-02-26T15:57:18;4.10;94.30
9919;DHT22;4998;51.024;13.828;2023-02-26T15:59:48;4.10;94.30
9919;DHT22;4998;51.024;13.828;2023-02-26T16:02:23;4.10;94.40
9919;DHT22;4998;51.024;13.828;2023-02-26T16:04:53;4.00;94.40
9919;DHT22;4998;51.024;13.828;2023-02-26T16:07:20;4.00;94.50
9919;DHT22;4998;51.024;13.828;2023-02-26T16:09:49;4.00;94.60
9919;DHT22;4998;51.024;13.828;2023-02-26T16:12:19;4.00;94.60
9919;DHT22;4998;51.024;13.828;2023-02-26T16:14:50;4.10;94.70
9919;DHT22;4998;51.024;13.828;2023-02-26T16:17:24;4.10;94.80
9919;DHT22;4998;51.024;13.828;2023-02-26T16:19:55;4.10;94.90
9919;DHT22;4998;51.024;13.828;2023-02-26T16:22:26;4.10;95.00
9919;DHT22;4998;51.024;13.828;2023-02-26T16:24:56;4.10;95.00
9919;DHT22;4998;51.024;13.828;2023-02-26T16:27:26;4.10;95.10
9919;DHT22;4998;51.024;13.828;2023-02-26T16:29:55;4.10;95.10
9919;DHT22;4998;51.024;13.828;2023-02-26T16:32:25;4.20;95.10
9919;DHT22;4998;51.024;13.828;2023-02-26T16:34:55;4.20;95.10
9919;DHT22;4998;51.024;13.828;2023-02-26T16:37:26;4.20;95.10
9919;DHT22;4998;51.024;13.828;2023-02-26T16:40:06;4.20;95.00
9919;DHT22;4998;51.024;13.828;2023-02-26T16:42:42;4.20;95.00
9919;DHT22;4998;51.024;13.828;2023-02-26T16:45:19;4.20;95.00
9919;DHT22;4998;51.024;13.828;2023-02-26T16:47:53;4.30;95.00
9919;DHT22;4998;51.024;13.828;2023-02-26T16:50:24;4.30;95.00
9919;DHT22;4998;51.024;13.828;2023-02-26T16:52:58;4.30;95.00
9919;DHT22;4998;51.024;13.828;2023-02-26T16:55:26;4.30;95.00